Airfield :
LOGIN :

Register | Disclaimer

   EN    FR    IT 

 










Legend :    VFR   Marginal VFR   IFR   Intensive IFR   Very Intensive IFR
Visi :
Ceiling :
>= 8 km
>= 3000ft
5 to 8 km
1000 to 3000 ft
1500m to 5 km
500 to 1000 ft
800 to 1500m
200 to 500 ft
< 800m
< 200 ft
Symbols :   Thunderstorms  Fog  Heavy snow  Heavy precipitations  Wind > 20 kt
SIGMETs :     Misc.  Thunderstorms  Icing  Turbulence  Mountain Waves  Volcanic Ashes







- Airport Elevation : 510 ft


LJCE - Cerklje

CURRENT METAR :
  • 211730Z AUTO 25004KT 220V300 9999 NCD 15/10 Q1018

EXPIRED METARs :
  • 211700Z AUTO 22005KT 9999 NCD 15/10 Q1018
  • 211630Z AUTO 21003KT 9999 NCD 16/10 Q1018
  • 211600Z AUTO 24005KT 9999 NSC 16/10 Q1017
  • 211530Z AUTO 26006KT 9999 NSC 18/11 Q1017
  • 211500Z AUTO 27008KT 9999 NCD 20/10 Q1017
  • 211430Z AUTO 27009KT 9999 NCD 20/10 Q1017

TAF TAF LJCE
Valid from the 21 at 15:00 until the 22 at 00:00 UTC


211400Z 2115/2124 26010KT CAVOK
BECMG 2118/2120 26005KT
No reported NOTAMs for that airfield.



MET'MAP, your aeronautical weather chart ! - Copyright ORBIFLY December 2007 - Disclaimer

ORBIFLY MET'MAP TEAM :

Programming & Development : Alexandra Zaïnal
Concept & Development : Baudouin d'Aumeries
Co-Development & Prog : Marc-Olivier Méhu
Technical & hardware support : Manuel Goepfert

Contact : metmap@orbifly.com




SOURCES & CREDITS :

   NOAA